Current Weather

Rochelle Muni/Koritz Fld

Rochelle, Illinois (KRPJ)

Report from: Wednesday, September 28, 2022 3:55 AM CDT
Current time: Wednesday, September 28, 2022 4:12 AM CDT

Nearby weather
Weather history
Weather forecast

Temperature4.8°C (40.6°F)
Wind chill2.6°C (36.7°F)
Dew point4.8°C (40.6°F)
Winds 5 kts (2.6 m/s, 5.8 mph) North (350°)
Visibility10 mi. (16.1 km)
Clouds Scattered clouds 5,000 ft. (1,524 m)
Altimeter30.37 in.Hg (1028 mB)
Relative humidity100 %
Density altitude-1,623 ft. (-495 m)
Remarks Fully automated report
Automated weather observing station with precipitation discriminator
Lightning detection system not operating
Flight conditions Visual Meteorological Conditions
Raw dataKRPJ 280855Z AUTO 35005KT 10SM SCT050 05/05 A3037 RMK AO2 T00480048 TSNO
An error has occurred. This application may no longer respond until reloaded. Reload 🗙